Time;durP1;ratioP1;P1;durP2;ratioP2;P2;SDS_P1;SDS_P2;PMS_P1;PMS_P2;Temp;Humidity;BMP_temperature;BMP_pressure;BME280_temperature;BME280_humidity;BME280_pressure;Samples;Min_cycle;Max_cycle;Signal;HPM_P1;HPM_P2
2021/04/07 00:02:13;;;;;;;25.83;24.83;;;;;;;;;;5028544;28;20029;-53
2021/04/07 00:04:47;;;;;;;28.75;27.65;;;;;;;;;;5031680;28;20046;-54
2021/04/07 00:07:19;;;;;;;24.77;24.30;;;;;;;;;;5026379;28;20050;-54
2021/04/07 00:09:50;;;;;;;24.70;24.30;;;;;;;;;;5032656;28;20124;-54
2021/04/07 00:12:20;;;;;;;27.67;26.67;;;;;;;;;;5027519;28;20088;-54
2021/04/07 00:14:53;;;;;;;24.27;23.45;;;;;;;;;;5028352;28;20397;-54
2021/04/07 00:17:25;;;;;;;27.33;26.38;;;;;;;;;;5033785;28;20033;-54
2021/04/07 00:19:56;;;;;;;25.75;25.33;;;;;;;;;;5027163;28;20042;-52
2021/04/07 00:22:29;;;;;;;28.23;27.13;;;;;;;;;;5021586;28;20520;-54
2021/04/07 00:25:00;;;;;;;25.45;24.88;;;;;;;;;;5030735;28;20099;-54
2021/04/07 00:27:28;;;;;;;25.60;25.02;;;;;;;;;;5025350;28;20056;-53
2021/04/07 00:29:59;;;;;;;26.15;25.58;;;;;;;;;;5030030;28;20085;-53
2021/04/07 00:32:29;;;;;;;26.05;25.52;;;;;;;;;;5023961;28;20050;-54
2021/04/07 00:35:00;;;;;;;26.73;26.08;;;;;;;;;;5021547;28;20054;-55
2021/04/07 00:37:33;;;;;;;25.60;25.25;;;;;;;;;;5032090;28;20033;-54
2021/04/07 00:40:05;;;;;;;26.02;25.27;;;;;;;;;;5021189;28;20033;-54
2021/04/07 00:42:38;;;;;;;24.08;23.75;;;;;;;;;;5017819;28;20418;-50
2021/04/07 00:45:07;;;;;;;24.98;24.27;;;;;;;;;;5021811;28;20045;-49
2021/04/07 00:47:40;;;;;;;25.75;24.70;;;;;;;;;;5025106;28;20081;-53
2021/04/07 00:50:12;;;;;;;24.38;23.80;;;;;;;;;;5030255;28;20057;-54
2021/04/07 00:52:44;;;;;;;29.48;28.40;;;;;;;;;;5022408;28;20060;-54
2021/04/07 00:55:16;;;;;;;27.48;26.60;;;;;;;;;;5020831;28;20126;-54
2021/04/07 00:57:46;;;;;;;27.63;26.88;;;;;;;;;;5029879;28;20682;-54
2021/04/07 01:00:17;;;;;;;26.73;25.65;;;;;;;;;;5027008;28;20029;-53
2021/04/07 01:02:46;;;;;;;26.05;25.23;;;;;;;;;;5029637;28;20120;-54
2021/04/07 01:05:16;;;;;;;27.05;25.90;;;;;;;;;;5027022;28;20069;-53
2021/04/07 01:07:45;;;;;;;24.15;23.75;;;;;;;;;;5025501;28;20049;-54
2021/04/07 01:10:16;;;;;;;25.35;24.77;;;;;;;;;;5028769;28;20516;-50
2021/04/07 01:12:46;;;;;;;26.55;25.80;;;;;;;;;;5027245;28;20053;-54
2021/04/07 01:15:15;;;;;;;26.13;25.48;;;;;;;;;;5023296;28;20124;-51
2021/04/07 01:17:44;;;;;;;23.73;23.13;;;;;;;;;;5031618;28;20045;-53
2021/04/07 01:20:19;;;;;;;25.63;25.02;;;;;;;;;;5024750;28;20041;-54
2021/04/07 01:22:50;;;;;;;24.77;24.17;;;;;;;;;;5028821;28;20124;-49
2021/04/07 01:25:21;;;;;;;26.67;26.15;;;;;;;;;;5029962;28;20288;-55
2021/04/07 01:27:51;;;;;;;27.35;26.63;;;;;;;;;;5040695;28;20033;-54
2021/04/07 01:30:21;;;;;;;24.33;23.80;;;;;;;;;;5029827;28;20448;-54
2021/04/07 01:32:52;;;;;;;23.83;23.38;;;;;;;;;;5023041;28;20037;-54
2021/04/07 01:35:23;;;;;;;26.05;25.40;;;;;;;;;;5026874;28;20038;-50
2021/04/07 01:37:52;;;;;;;28.52;27.38;;;;;;;;;;5030120;28;20088;-54
2021/04/07 01:40:22;;;;;;;27.13;26.05;;;;;;;;;;5024117;28;20083;-53
2021/04/07 01:42:55;;;;;;;26.08;25.67;;;;;;;;;;5028306;28;20033;-53
2021/04/07 01:45:29;;;;;;;25.80;25.30;;;;;;;;;;5018119;28;20512;-55
2021/04/07 01:47:59;;;;;;;26.23;25.65;;;;;;;;;;5024158;28;20029;-54
2021/04/07 01:50:30;;;;;;;24.60;24.00;;;;;;;;;;5029299;28;20058;-51
2021/04/07 01:53:00;;;;;;;27.20;26.17;;;;;;;;;;5026941;28;20730;-54
2021/04/07 01:55:30;;;;;;;25.25;24.48;;;;;;;;;;5024379;28;20052;-54
2021/04/07 01:58:03;;;;;;;27.70;27.05;;;;;;;;;;5023818;28;20060;-53
2021/04/07 02:00:35;;;;;;;26.55;25.83;;;;;;;;;;5024707;28;20428;-54
2021/04/07 02:03:06;;;;;;;25.58;24.95;;;;;;;;;;5028252;28;20053;-49
2021/04/07 02:05:36;;;;;;;24.58;24.17;;;;;;;;;;5028000;28;20124;-54
2021/04/07 02:08:06;;;;;;;26.63;25.75;;;;;;;;;;5025072;28;20041;-54
2021/04/07 02:10:38;;;;;;;24.30;23.88;;;;;;;;;;5030924;28;20037;-54
2021/04/07 02:13:17;;;;;;;26.80;26.30;;;;;;;;;;5025185;28;20052;-54
2021/04/07 02:15:48;;;;;;;27.85;27.25;;;;;;;;;;5022728;28;20033;-54
2021/04/07 02:18:20;;;;;;;24.80;24.30;;;;;;;;;;5024546;28;20076;-51
2021/04/07 02:20:50;;;;;;;27.52;26.90;;;;;;;;;;5018411;28;20549;-52
2021/04/07 02:23:22;;;;;;;27.60;27.00;;;;;;;;;;5016769;28;20096;-54
2021/04/07 02:25:53;;;;;;;30.15;28.95;;;;;;;;;;5029237;28;20045;-54
2021/04/07 02:28:23;;;;;;;28.05;27.45;;;;;;;;;;5023765;28;20044;-53
2021/04/07 02:30:54;;;;;;;25.52;24.98;;;;;;;;;;5020424;28;20053;-54
2021/04/07 02:33:24;;;;;;;28.15;27.40;;;;;;;;;;5024541;28;20041;-53
2021/04/07 02:35:55;;;;;;;25.90;25.35;;;;;;;;;;5024160;28;20045;-53
2021/04/07 02:38:24;;;;;;;28.88;28.27;;;;;;;;;;5024611;28;20095;-50
2021/04/07 02:40:54;;;;;;;25.42;25.02;;;;;;;;;;5022749;28;20494;-54
2021/04/07 02:43:26;;;;;;;28.13;27.42;;;;;;;;;;5018913;28;20045;-50
2021/04/07 02:45:58;;;;;;;27.70;27.20;;;;;;;;;;5018156;28;20076;-54
2021/04/07 02:48:28;;;;;;;27.48;26.88;;;;;;;;;;5015721;28;20100;-53
2021/04/07 02:50:59;;;;;;;25.58;25.02;;;;;;;;;;5018144;28;20119;-54
2021/04/07 02:53:28;;;;;;;27.95;27.45;;;;;;;;;;5026901;28;20478;-54
2021/04/07 02:55:56;;;;;;;27.02;26.42;;;;;;;;;;5026445;28;20038;-54
2021/04/07 02:58:25;;;;;;;28.23;27.50;;;;;;;;;;5017644;28;20052;-53
2021/04/07 03:00:56;;;;;;;27.55;26.95;;;;;;;;;;5022890;28;20116;-54
2021/04/07 03:03:26;;;;;;;25.33;24.70;;;;;;;;;;5026453;28;20038;-54
2021/04/07 03:05:55;;;;;;;26.65;26.00;;;;;;;;;;5028346;28;20038;-53
2021/04/07 03:08:27;;;;;;;26.60;26.00;;;;;;;;;;5020548;28;20042;-54
2021/04/07 03:10:57;;;;;;;25.60;25.20;;;;;;;;;;5013954;28;20099;-54
2021/04/07 03:13:29;;;;;;;28.17;27.23;;;;;;;;;;5024375;28;20669;-52
2021/04/07 03:16:00;;;;;;;27.83;27.08;;;;;;;;;;5023918;28;20034;-54
2021/04/07 03:18:31;;;;;;;28.92;28.27;;;;;;;;;;5025420;28;20426;-55
2021/04/07 03:21:02;;;;;;;29.08;28.48;;;;;;;;;;5019110;28;20033;-54
2021/04/07 03:23:33;;;;;;;28.75;28.25;;;;;;;;;;5019823;28;20037;-53
2021/04/07 03:26:04;;;;;;;28.55;27.95;;;;;;;;;;5043627;28;20521;-52
2021/04/07 03:28:36;;;;;;;27.77;27.17;;;;;;;;;;5023034;28;20037;-54
2021/04/07 03:31:06;;;;;;;29.88;29.05;;;;;;;;;;5020850;28;20042;-52
2021/04/07 03:33:36;;;;;;;27.60;26.98;;;;;;;;;;5022642;28;20042;-53
2021/04/07 03:36:07;;;;;;;25.40;25.00;;;;;;;;;;5023938;28;20042;-51
2021/04/07 03:38:39;;;;;;;25.92;25.45;;;;;;;;;;5026598;28;20113;-54
2021/04/07 03:41:09;;;;;;;27.58;26.88;;;;;;;;;;5022711;28;20037;-53
2021/04/07 03:43:39;;;;;;;28.73;28.15;;;;;;;;;;5029359;28;20045;-54
2021/04/07 03:46:06;;;;;;;27.95;27.10;;;;;;;;;;5026192;28;20041;-54
2021/04/07 03:48:32;;;;;;;27.67;27.00;;;;;;;;;;5020079;28;20152;-54
2021/04/07 03:50:58;;;;;;;27.55;26.95;;;;;;;;;;5031299;28;20038;-54
2021/04/07 03:53:25;;;;;;;29.08;28.38;;;;;;;;;;5027576;28;20564;-54
2021/04/07 03:55:53;;;;;;;30.10;29.40;;;;;;;;;;5031829;28;20053;-53
2021/04/07 03:58:20;;;;;;;28.95;28.45;;;;;;;;;;5016593;28;20081;-52
2021/04/07 04:00:48;;;;;;;30.52;29.77;;;;;;;;;;5021100;28;20040;-55
2021/04/07 04:03:19;;;;;;;32.42;31.27;;;;;;;;;;5042377;28;20402;-54
2021/04/07 04:05:48;;;;;;;30.58;29.50;;;;;;;;;;5026257;28;20061;-52
2021/04/07 04:08:18;;;;;;;30.45;29.73;;;;;;;;;;5023603;28;20066;-52
2021/04/07 04:10:48;;;;;;;27.02;26.33;;;;;;;;;;5017589;28;20417;-54
2021/04/07 04:13:18;;;;;;;29.80;28.85;;;;;;;;;;5026012;28;20041;-54
2021/04/07 04:15:48;;;;;;;31.73;30.65;;;;;;;;;;5033917;28;20112;-52
2021/04/07 04:18:19;;;;;;;29.45;28.85;;;;;;;;;;5026877;28;20064;-53
2021/04/07 04:20:49;;;;;;;27.55;27.02;;;;;;;;;;5026179;28;20037;-54
2021/04/07 04:23:19;;;;;;;29.70;28.98;;;;;;;;;;5021169;28;20125;-54
2021/04/07 04:25:48;;;;;;;31.02;30.05;;;;;;;;;;5026280;28;20049;-53
2021/04/07 04:28:18;;;;;;;30.13;29.42;;;;;;;;;;5031200;28;20124;-53
2021/04/07 04:30:47;;;;;;;27.60;27.10;;;;;;;;;;5028927;28;20037;-54
2021/04/07 04:33:20;;;;;;;29.77;29.02;;;;;;;;;;5025660;28;20048;-50
2021/04/07 04:35:51;;;;;;;30.85;30.15;;;;;;;;;;5045798;28;20037;-54
2021/04/07 04:38:23;;;;;;;30.63;29.45;;;;;;;;;;5041699;28;20116;-54
2021/04/07 04:40:54;;;;;;;30.27;29.38;;;;;;;;;;5026915;28;20037;-53
2021/04/07 04:43:26;;;;;;;28.50;27.77;;;;;;;;;;5028290;28;20111;-51
2021/04/07 04:45:54;;;;;;;29.58;28.88;;;;;;;;;;5024812;28;20132;-54
2021/04/07 04:48:25;;;;;;;28.30;27.80;;;;;;;;;;5030123;28;20072;-52
2021/04/07 04:50:57;;;;;;;29.70;29.10;;;;;;;;;;5027598;28;20065;-54
2021/04/07 04:53:28;;;;;;;28.20;27.67;;;;;;;;;;5023226;28;20129;-54
2021/04/07 04:55:57;;;;;;;32.30;31.23;;;;;;;;;;5027249;28;20482;-54
2021/04/07 04:58:31;;;;;;;31.17;30.35;;;;;;;;;;5026011;28;20034;-53
2021/04/07 05:01:04;;;;;;;30.27;29.58;;;;;;;;;;5024773;28;20547;-53
2021/04/07 05:03:34;;;;;;;29.77;29.10;;;;;;;;;;5030736;28;20052;-54
2021/04/07 05:06:07;;;;;;;28.75;27.45;;;;;;;;;;5025894;28;20037;-52
2021/04/07 05:08:36;;;;;;;29.98;29.27;;;;;;;;;;5026369;28;20053;-53
2021/04/07 05:11:06;;;;;;;30.60;29.73;;;;;;;;;;5030666;28;20029;-52
2021/04/07 05:13:35;;;;;;;30.63;29.65;;;;;;;;;;5025636;28;20578;-54
2021/04/07 05:16:06;;;;;;;30.27;29.20;;;;;;;;;;5023217;28;20041;-55
2021/04/07 05:18:37;;;;;;;29.47;28.20;;;;;;;;;;5019072;28;20034;-54
2021/04/07 05:21:10;;;;;;;28.58;27.52;;;;;;;;;;5023632;28;20397;-54
2021/04/07 05:23:42;;;;;;;26.70;25.77;;;;;;;;;;5026322;28;20038;-54
2021/04/07 05:26:13;;;;;;;29.13;28.17;;;;;;;;;;5024975;28;20046;-54
2021/04/07 05:28:43;;;;;;;25.70;25.10;;;;;;;;;;5025961;28;20099;-56
2021/04/07 05:31:16;;;;;;;33.15;31.58;;;;;;;;;;5028587;28;20041;-56
2021/04/07 05:33:47;;;;;;;30.33;29.02;;;;;;;;;;5024177;28;20552;-55
2021/04/07 05:36:18;;;;;;;28.27;27.67;;;;;;;;;;5030906;28;20037;-56
2021/04/07 05:38:50;;;;;;;27.38;26.60;;;;;;;;;;5027306;28;20049;-56
2021/04/07 05:41:22;;;;;;;27.08;26.48;;;;;;;;;;5027186;28;20037;-55
2021/04/07 05:43:52;;;;;;;29.33;28.10;;;;;;;;;;5031513;28;20045;-48
2021/04/07 05:46:20;;;;;;;31.55;30.02;;;;;;;;;;5025381;28;20073;-53
2021/04/07 05:48:51;;;;;;;32.17;30.23;;;;;;;;;;5028937;28;20057;-56
2021/04/07 05:51:21;;;;;;;28.58;27.67;;;;;;;;;;5027766;28;20061;-55
2021/04/07 05:53:52;;;;;;;28.40;27.70;;;;;;;;;;5024188;28;20120;-56
2021/04/07 05:56:28;;;;;;;29.90;29.10;;;;;;;;;;5030285;28;20037;-55
2021/04/07 05:58:57;;;;;;;25.58;25.15;;;;;;;;;;5024460;28;20038;-56
2021/04/07 06:01:26;;;;;;;30.73;29.73;;;;;;;;;;5041785;28;20099;-56
2021/04/07 06:03:54;;;;;;;30.58;29.50;;;;;;;;;;5030614;28;20088;-56
2021/04/07 06:06:25;;;;;;;30.65;29.58;;;;;;;;;;5024468;28;20048;-55
2021/04/07 06:08:59;;;;;;;28.48;27.50;;;;;;;;;;5029569;28;20041;-53
2021/04/07 06:11:27;;;;;;;28.65;27.63;;;;;;;;;;5016072;28;20042;-56
2021/04/07 06:13:54;;;;;;;28.77;27.65;;;;;;;;;;5021152;28;20050;-56
2021/04/07 06:16:20;;;;;;;30.10;28.95;;;;;;;;;;5032133;28;20472;-55
2021/04/07 06:18:47;;;;;;;27.50;26.83;;;;;;;;;;5024299;28;20045;-56
2021/04/07 06:21:13;;;;;;;27.23;26.30;;;;;;;;;;5026605;28;20118;-56
2021/04/07 06:23:39;;;;;;;27.88;26.85;;;;;;;;;;5028759;28;20136;-55
2021/04/07 06:26:06;;;;;;;26.15;25.40;;;;;;;;;;5024332;28;20079;-52
2021/04/07 06:28:32;;;;;;;29.65;28.75;;;;;;;;;;5032182;28;20124;-56
2021/04/07 06:30:59;;;;;;;28.15;27.25;;;;;;;;;;5025230;28;20048;-55
2021/04/07 06:33:25;;;;;;;28.05;27.27;;;;;;;;;;5025964;28;20046;-56
2021/04/07 06:35:52;;;;;;;25.55;24.65;;;;;;;;;;5029686;28;20486;-55
2021/04/07 06:38:20;;;;;;;24.20;23.77;;;;;;;;;;5024886;28;20033;-55
2021/04/07 06:40:50;;;;;;;25.92;25.13;;;;;;;;;;5031072;28;20041;-56
2021/04/07 06:43:24;;;;;;;26.90;25.65;;;;;;;;;;5017221;28;20517;-56
2021/04/07 06:45:52;;;;;;;26.23;25.50;;;;;;;;;;5019083;28;20459;-56
2021/04/07 06:48:20;;;;;;;25.25;24.42;;;;;;;;;;5030332;28;20056;-55
2021/04/07 06:50:47;;;;;;;26.73;26.00;;;;;;;;;;5023013;28;20449;-55
2021/04/07 06:53:15;;;;;;;27.25;26.65;;;;;;;;;;5029629;28;20041;-56
2021/04/07 06:55:41;;;;;;;24.30;23.63;;;;;;;;;;5026347;28;20251;-56
2021/04/07 06:58:09;;;;;;;26.55;25.75;;;;;;;;;;5025338;28;20142;-56
2021/04/07 07:00:36;;;;;;;24.55;23.30;;;;;;;;;;5031116;28;20042;-55
2021/04/07 07:03:07;;;;;;;25.83;25.23;;;;;;;;;;5022407;28;20044;-56
2021/04/07 07:05:35;;;;;;;21.25;20.85;;;;;;;;;;5027962;28;20065;-55
2021/04/07 07:08:05;;;;;;;24.55;23.95;;;;;;;;;;5029196;28;20041;-56
2021/04/07 07:10:40;;;;;;;24.45;23.77;;;;;;;;;;5023979;28;20545;-51
2021/04/07 07:13:23;;;;;;;22.25;21.63;;;;;;;;;;5030477;28;20377;-56
2021/04/07 07:15:53;;;;;;;26.05;25.27;;;;;;;;;;5024961;28;20120;-56
2021/04/07 07:18:24;;;;;;;25.27;24.77;;;;;;;;;;5025345;28;20425;-56
2021/04/07 07:20:52;;;;;;;24.90;24.17;;;;;;;;;;5025365;28;20038;-56
2021/04/07 07:23:27;;;;;;;23.05;22.63;;;;;;;;;;5023179;28;20095;-55
2021/04/07 07:26:03;;;;;;;22.02;21.33;;;;;;;;;;5032077;28;20548;-56
2021/04/07 07:29:07;;;;;;;21.25;20.60;;;;;;;;;;5016027;28;20394;-56
2021/04/07 07:31:33;;;;;;;23.52;22.77;;;;;;;;;;5011181;28;20061;-56
2021/04/07 07:34:00;;;;;;;20.20;19.90;;;;;;;;;;5010707;28;20521;-53
2021/04/07 07:36:28;;;;;;;19.42;19.20;;;;;;;;;;5012699;28;20057;-57
2021/04/07 07:38:56;;;;;;;19.80;19.23;;;;;;;;;;5011230;28;20057;-57
2021/04/07 07:41:34;;;;;;;19.73;19.40;;;;;;;;;;5011635;28;20514;-56
2021/04/07 07:44:19;;;;;;;21.10;20.70;;;;;;;;;;5011262;28;20046;-56
2021/04/07 07:46:57;;;;;;;21.65;21.15;;;;;;;;;;5010175;28;20050;-57
2021/04/07 07:49:27;;;;;;;19.50;18.90;;;;;;;;;;5011092;28;20074;-55
2021/04/07 07:51:58;;;;;;;17.27;16.98;;;;;;;;;;5012617;28;20363;-57
2021/04/07 07:54:30;;;;;;;20.35;19.95;;;;;;;;;;5011930;28;20052;-56
2021/04/07 07:57:09;;;;;;;19.80;19.45;;;;;;;;;;5011408;28;20493;-57
2021/04/07 07:59:37;;;;;;;17.38;16.83;;;;;;;;;;5010987;28;20065;-56
2021/04/07 08:02:20;;;;;;;19.52;19.33;;;;;;;;;;4994353;28;20053;-56
2021/04/07 08:04:52;;;;;;;20.17;19.90;;;;;;;;;;5012054;28;20109;-55
2021/04/07 08:07:33;;;;;;;21.00;20.70;;;;;;;;;;5010310;28;20104;-57
2021/04/07 08:10:06;;;;;;;17.98;17.77;;;;;;;;;;5009311;28;20052;-57
2021/04/07 08:12:36;;;;;;;19.35;19.05;;;;;;;;;;5011196;28;20553;-56
2021/04/07 08:15:09;;;;;;;19.48;19.13;;;;;;;;;;5006068;28;20038;-57
2021/04/07 08:17:39;;;;;;;19.83;19.63;;;;;;;;;;5013611;28;20045;-57
2021/04/07 08:20:10;;;;;;;19.58;19.25;;;;;;;;;;5009092;28;20049;-56
2021/04/07 08:22:39;;;;;;;19.70;19.33;;;;;;;;;;5009195;28;20105;-55
2021/04/07 08:25:09;;;;;;;18.70;18.30;;;;;;;;;;5011515;28;20068;-54
2021/04/07 08:27:40;;;;;;;15.82;15.73;;;;;;;;;;5007006;28;20049;-57
2021/04/07 08:30:09;;;;;;;15.80;15.57;;;;;;;;;;5011027;28;20034;-57
2021/04/07 08:32:38;;;;;;;17.52;17.15;;;;;;;;;;5009695;28;20041;-56
2021/04/07 08:35:11;;;;;;;15.02;14.90;;;;;;;;;;5004839;28;20038;-57
2021/04/07 08:37:42;;;;;;;17.23;16.88;;;;;;;;;;5002092;28;20129;-57
2021/04/07 08:40:15;;;;;;;15.30;15.10;;;;;;;;;;5007216;28;20120;-57
2021/04/07 08:42:44;;;;;;;13.40;13.07;;;;;;;;;;5009305;28;20101;-56
2021/04/07 08:45:16;;;;;;;16.80;16.30;;;;;;;;;;5011669;28;20042;-57
2021/04/07 08:47:55;;;;;;;17.23;16.77;;;;;;;;;;5007985;28;20049;-57
2021/04/07 08:50:28;;;;;;;14.35;14.07;;;;;;;;;;5026436;28;20058;-56
2021/04/07 08:52:59;;;;;;;7.68;7.47;;;;;;;;;;5030729;28;20053;-57
2021/04/07 08:55:29;;;;;;;3.55;3.55;;;;;;;;;;5027287;28;20038;-56
2021/04/07 08:58:03;;;;;;;4.93;4.63;;;;;;;;;;5033640;28;20034;-57
2021/04/07 09:00:37;;;;;;;3.70;3.70;;;;;;;;;;5027332;28;20540;-57
2021/04/07 09:03:14;;;;;;;1.97;1.97;;;;;;;;;;5026725;28;20042;-58
2021/04/07 09:05:48;;;;;;;12.52;12.43;;;;;;;;;;5016143;28;20053;-54
2021/04/07 09:08:22;;;;;;;12.50;12.20;;;;;;;;;;5026010;28;20103;-53
2021/04/07 09:10:53;;;;;;;16.13;15.70;;;;;;;;;;5028904;28;20045;-57
2021/04/07 09:13:25;;;;;;;14.63;14.43;;;;;;;;;;5030792;28;20100;-55
2021/04/07 09:16:06;;;;;;;14.60;14.40;;;;;;;;;;5025059;28;20041;-56
2021/04/07 09:18:40;;;;;;;12.90;12.80;;;;;;;;;;5030466;28;20071;-57
2021/04/07 09:21:23;;;;;;;14.10;13.75;;;;;;;;;;5029006;28;20037;-57
2021/04/07 09:24:00;;;;;;;4.90;4.80;;;;;;;;;;5023056;28;20045;-55
2021/04/07 09:26:31;;;;;;;4.35;4.25;;;;;;;;;;5029653;28;20041;-57
2021/04/07 09:29:03;;;;;;;4.80;4.60;;;;;;;;;;5029092;28;20049;-56
2021/04/07 09:31:35;;;;;;;3.97;3.88;;;;;;;;;;5025782;28;20045;-57
2021/04/07 09:34:06;;;;;;;7.40;7.30;;;;;;;;;;5015533;28;20498;-57
2021/04/07 09:36:39;;;;;;;14.43;14.32;;;;;;;;;;5025886;28;20033;-57
2021/04/07 09:39:11;;;;;;;11.73;11.52;;;;;;;;;;5028044;28;20169;-58
2021/04/07 09:41:44;;;;;;;12.82;12.73;;;;;;;;;;5029076;28;20054;-57
2021/04/07 09:44:18;;;;;;;13.45;12.93;;;;;;;;;;5024420;28;20049;-57
2021/04/07 09:46:54;;;;;;;9.68;9.48;;;;;;;;;;5025874;28;20045;-57
2021/04/07 09:49:24;;;;;;;13.52;13.27;;;;;;;;;;5022957;28;20050;-52
2021/04/07 09:51:55;;;;;;;14.43;14.13;;;;;;;;;;5023969;28;20046;-57
2021/04/07 09:54:28;;;;;;;11.45;11.35;;;;;;;;;;5021160;28;20132;-57
2021/04/07 09:57:04;;;;;;;5.60;5.47;;;;;;;;;;5021875;28;20033;-57
2021/04/07 09:59:52;;;;;;;1.67;1.67;;;;;;;;;;5028638;28;20050;-57
2021/04/07 10:02:24;;;;;;;2.58;2.58;;;;;;;;;;5028865;28;20410;-55
2021/04/07 10:04:57;;;;;;;2.65;2.55;;;;;;;;;;5024375;28;20034;-55
2021/04/07 10:07:29;;;;;;;6.57;6.47;;;;;;;;;;5029068;28;20402;-57
2021/04/07 10:10:00;;;;;;;;;;;;;;;;;;5027635;28;20510;-57
2021/04/07 10:12:34;;;;;;;2.92;2.90;;;;;;;;;;5023193;28;19921;-57
2021/04/07 10:15:07;;;;;;;4.55;4.50;;;;;;;;;;5025132;28;20041;-57
2021/04/07 10:17:36;;;;;;;3.00;2.88;;;;;;;;;;5025855;28;20109;-55
2021/04/07 10:20:10;;;;;;;3.25;3.05;;;;;;;;;;5025686;28;20501;-57
2021/04/07 10:22:40;;;;;;;1.42;1.42;;;;;;;;;;5030208;28;20033;-57
2021/04/07 10:25:15;;;;;;;5.30;5.30;;;;;;;;;;5022841;28;20034;-53
2021/04/07 10:27:44;;;;;;;11.45;11.35;;;;;;;;;;5020344;28;20054;-56
2021/04/07 10:30:17;;;;;;;14.32;14.23;;;;;;;;;;5028100;28;20042;-53
2021/04/07 10:32:46;;;;;;;13.82;13.63;;;;;;;;;;5026194;28;20038;-55
2021/04/07 10:35:23;;;;;;;13.95;13.75;;;;;;;;;;5026375;28;20486;-57
2021/04/07 10:37:51;;;;;;;15.68;15.48;;;;;;;;;;5018805;28;20125;-57
2021/04/07 10:40:22;;;;;;;14.55;14.45;;;;;;;;;;5026190;28;20053;-56
2021/04/07 10:42:53;;;;;;;14.10;14.00;;;;;;;;;;5029233;28;20034;-57
2021/04/07 10:45:25;;;;;;;15.35;14.95;;;;;;;;;;5024109;28;20067;-57
2021/04/07 10:48:06;;;;;;;15.23;15.10;;;;;;;;;;5030198;28;20057;-57
2021/04/07 10:50:39;;;;;;;16.40;16.10;;;;;;;;;;5022245;28;20111;-57
2021/04/07 10:53:10;;;;;;;16.35;16.02;;;;;;;;;;5020282;28;20088;-57
2021/04/07 10:55:42;;;;;;;15.88;15.77;;;;;;;;;;5029684;28;20510;-56
2021/04/07 10:58:24;;;;;;;16.10;15.80;;;;;;;;;;5023951;28;20037;-57
2021/04/07 11:00:55;;;;;;;16.60;16.38;;;;;;;;;;5030060;28;20479;-57
2021/04/07 11:03:31;;;;;;;15.63;15.52;;;;;;;;;;5033160;28;20040;-55
2021/04/07 11:06:02;;;;;;;18.08;17.67;;;;;;;;;;5028118;28;20148;-56
2021/04/07 11:08:35;;;;;;;19.25;18.67;;;;;;;;;;5028515;28;20107;-57
2021/04/07 11:11:06;;;;;;;18.08;17.88;;;;;;;;;;5031582;28;20099;-57
2021/04/07 11:13:37;;;;;;;20.52;19.92;;;;;;;;;;5026232;28;20096;-57
2021/04/07 11:16:09;;;;;;;17.50;17.30;;;;;;;;;;5035115;28;20038;-57
2021/04/07 11:18:40;;;;;;;13.82;13.73;;;;;;;;;;5027695;28;20037;-56
2021/04/07 11:21:14;;;;;;;15.95;15.57;;;;;;;;;;5028786;28;20033;-57
2021/04/07 11:23:47;;;;;;;16.45;16.25;;;;;;;;;;5033731;28;20096;-57
2021/04/07 11:26:17;;;;;;;15.35;15.25;;;;;;;;;;5025851;28;20056;-55
2021/04/07 11:28:48;;;;;;;15.70;15.60;;;;;;;;;;5031446;28;20402;-56
2021/04/07 11:31:24;;;;;;;16.85;16.75;;;;;;;;;;5031605;28;20113;-56
2021/04/07 11:33:56;;;;;;;17.45;17.35;;;;;;;;;;5028714;28;20487;-57
2021/04/07 11:40:00;;;;;;;16.15;15.95;;;;;;;;;;5030504;28;20440;-56
2021/04/07 11:45:07;;;;;;;14.60;14.40;;;;;;;;;;5018661;28;20026;-56
2021/04/07 11:47:38;;;;;;;12.77;12.48;;;;;;;;;;5032199;28;20398;-57
2021/04/07 11:50:09;;;;;;;9.20;9.00;;;;;;;;;;5026768;28;20046;-56
2021/04/07 11:52:38;;;;;;;12.07;11.98;;;;;;;;;;5033140;28;20512;-56
2021/04/07 11:55:09;;;;;;;13.57;13.45;;;;;;;;;;5026498;28;20034;-57
2021/04/07 11:57:39;;;;;;;13.80;13.45;;;;;;;;;;5028332;28;20103;-52
2021/04/07 12:00:10;;;;;;;14.75;14.65;;;;;;;;;;5034144;28;20520;-57
2021/04/07 12:02:44;;;;;;;15.90;15.70;;;;;;;;;;5027446;28;20076;-57
2021/04/07 12:05:21;;;;;;;14.93;14.73;;;;;;;;;;5031002;28;20555;-57
2021/04/07 12:07:51;;;;;;;15.70;15.43;;;;;;;;;;5031369;28;20091;-56
2021/04/07 12:10:23;;;;;;;12.27;12.18;;;;;;;;;;5025218;28;20063;-55
2021/04/07 12:12:55;;;;;;;13.88;13.68;;;;;;;;;;5033999;28;20033;-58
2021/04/07 12:15:27;;;;;;;16.50;16.30;;;;;;;;;;5029056;28;20053;-57
2021/04/07 12:17:56;;;;;;;17.98;17.77;;;;;;;;;;5028583;28;20386;-57
2021/04/07 12:20:23;;;;;;;17.50;17.30;;;;;;;;;;5024308;28;20490;-57
2021/04/07 12:22:52;;;;;;;18.50;18.30;;;;;;;;;;5024264;28;20033;-57
2021/04/07 12:25:18;;;;;;;18.73;18.52;;;;;;;;;;5031889;28;20040;-57
2021/04/07 12:27:44;;;;;;;18.75;18.35;;;;;;;;;;5029559;28;20038;-57
2021/04/07 12:30:11;;;;;;;19.27;18.83;;;;;;;;;;5027623;28;20486;-56
2021/04/07 12:32:38;;;;;;;18.48;18.17;;;;;;;;;;5033036;28;20033;-55
2021/04/07 12:35:08;;;;;;;20.23;20.00;;;;;;;;;;5020053;28;20088;-57
2021/04/07 12:37:40;;;;;;;19.50;19.20;;;;;;;;;;5020948;28;20117;-56
2021/04/07 12:40:10;;;;;;;19.70;19.50;;;;;;;;;;5030586;28;20052;-56
2021/04/07 12:42:39;;;;;;;19.25;19.05;;;;;;;;;;5027859;28;20103;-56
2021/04/07 12:45:09;;;;;;;21.92;21.63;;;;;;;;;;5031216;28;20041;-53
2021/04/07 12:47:35;;;;;;;21.08;20.73;;;;;;;;;;5025831;28;20049;-57
2021/04/07 12:50:02;;;;;;;21.42;21.10;;;;;;;;;;5026562;28;20486;-57
2021/04/07 12:52:29;;;;;;;21.35;21.13;;;;;;;;;;5031802;28;20053;-56
2021/04/07 12:54:55;;;;;;;21.52;21.23;;;;;;;;;;5025307;28;20045;-57
2021/04/07 12:57:22;;;;;;;23.40;22.98;;;;;;;;;;5030721;28;20045;-56
2021/04/07 12:59:52;;;;;;;21.38;21.08;;;;;;;;;;5027898;28;20038;-57
2021/04/07 13:02:23;;;;;;;20.30;20.10;;;;;;;;;;5024728;28;20213;-56
2021/04/07 13:04:55;;;;;;;23.17;22.77;;;;;;;;;;5019936;28;20046;-56
2021/04/07 13:07:24;;;;;;;21.70;21.50;;;;;;;;;;5025897;28;20509;-56
2021/04/07 13:09:58;;;;;;;21.83;21.42;;;;;;;;;;5029729;28;20115;-57
2021/04/07 13:12:28;;;;;;;20.65;20.45;;;;;;;;;;5030558;28;20048;-56
2021/04/07 13:15:02;;;;;;;19.40;19.10;;;;;;;;;;5025906;28;20125;-57
2021/04/07 13:17:33;;;;;;;18.50;18.30;;;;;;;;;;5027925;28;20847;-56
2021/04/07 13:20:09;;;;;;;19.48;19.27;;;;;;;;;;5041808;28;20053;-57
2021/04/07 13:22:36;;;;;;;18.20;17.95;;;;;;;;;;5025976;28;20114;-53
2021/04/07 13:25:05;;;;;;;17.45;17.35;;;;;;;;;;5031914;28;20037;-55
2021/04/07 13:27:37;;;;;;;17.17;17.02;;;;;;;;;;5026156;28;20034;-57
2021/04/07 13:30:12;;;;;;;15.85;15.75;;;;;;;;;;5023831;28;20034;-57
2021/04/07 13:32:54;;;;;;;16.40;16.13;;;;;;;;;;5030927;28;20498;-57
2021/04/07 13:35:37;;;;;;;14.35;14.25;;;;;;;;;;5022786;28;20527;-54
2021/04/07 13:38:10;;;;;;;14.70;14.52;;;;;;;;;;5028803;28;20044;-55
2021/04/07 13:43:09;;;;;;;13.60;13.50;;;;;;;;;;5024701;28;20034;-57
2021/04/07 13:45:37;;;;;;;14.27;14.18;;;;;;;;;;5017063;28;20035;-57
2021/04/07 13:50:38;;;;;;;13.38;13.10;;;;;;;;;;5025766;28;20053;-57
2021/04/07 13:53:10;;;;;;;12.98;12.88;;;;;;;;;;5031465;28;20369;-55
2021/04/07 13:55:41;;;;;;;7.50;7.40;;;;;;;;;;5024506;28;20504;-58
2021/04/07 13:58:12;;;;;;;3.10;3.03;;;;;;;;;;5028055;28;20045;-57
2021/04/07 14:00:43;;;;;;;2.88;2.85;;;;;;;;;;5029054;28;20045;-57
2021/04/07 14:03:12;;;;;;;3.17;3.17;;;;;;;;;;5024071;28;20040;-57
2021/04/07 14:05:40;;;;;;;4.13;4.13;;;;;;;;;;5030800;28;20046;-57
2021/04/07 14:08:10;;;;;;;7.28;7.18;;;;;;;;;;5025893;28;20530;-58
2021/04/07 14:10:47;;;;;;;11.63;11.50;;;;;;;;;;5026956;28;20084;-57
2021/04/07 14:13:17;;;;;;;13.38;13.18;;;;;;;;;;5025145;28;20042;-55
2021/04/07 14:15:49;;;;;;;2.05;2.05;;;;;;;;;;5024443;28;20393;-57
2021/04/07 14:18:20;;;;;;;2.50;2.50;;;;;;;;;;5028666;28;20049;-56
2021/04/07 14:20:52;;;;;;;13.18;12.88;;;;;;;;;;5028540;28;20044;-58
2021/04/07 14:23:22;;;;;;;12.80;12.20;;;;;;;;;;5023604;28;20088;-57
2021/04/07 14:26:00;;;;;;;9.65;9.55;;;;;;;;;;5031036;28;20052;-57
2021/04/07 14:28:31;;;;;;;10.85;10.75;;;;;;;;;;5025450;28;20077;-57
2021/04/07 14:31:00;;;;;;;12.75;12.65;;;;;;;;;;5026999;28;20037;-57
2021/04/07 14:33:32;;;;;;;8.88;8.77;;;;;;;;;;5019720;28;20567;-57
2021/04/07 14:35:59;;;;;;;14.52;14.05;;;;;;;;;;5023651;28;20539;-57
2021/04/07 14:38:28;;;;;;;12.93;12.60;;;;;;;;;;5027787;28;20037;-58
2021/04/07 14:40:54;;;;;;;3.67;3.45;;;;;;;;;;5017456;28;20072;-58
2021/04/07 14:43:21;;;;;;;6.88;6.78;;;;;;;;;;5023526;28;20041;-57
2021/04/07 14:45:47;;;;;;;6.55;6.45;;;;;;;;;;5024042;28;20038;-58
2021/04/07 14:48:15;;;;;;;1.75;1.65;;;;;;;;;;5022189;28;20069;-58
2021/04/07 14:50:44;;;;;;;3.58;3.30;;;;;;;;;;5024779;28;20092;-56
2021/04/07 14:53:17;;;;;;;4.60;4.50;;;;;;;;;;5018123;28;20478;-57
2021/04/07 14:55:44;;;;;;;5.47;5.47;;;;;;;;;;5022505;28;20802;-56